sensor_id;sensor_type;location;lat;lon;timestamp;pressure;altitude;pressure_sealevel;temperature;humidity
17649;BME280;8943;51.110;-4.158;2023-03-14T00:01:36;99000.66;;;12.43;51.23
17649;BME280;8943;51.110;-4.158;2023-03-14T00:04:04;99043.22;;;12.36;50.79
17649;BME280;8943;51.110;-4.158;2023-03-14T00:06:34;99009.84;;;12.32;50.45
17649;BME280;8943;51.110;-4.158;2023-03-14T00:09:02;99004.16;;;12.27;49.95
17649;BME280;8943;51.110;-4.158;2023-03-14T00:11:30;99025.84;;;12.24;49.42
17649;BME280;8943;51.110;-4.158;2023-03-14T00:13:59;99056.03;;;12.24;49.37
17649;BME280;8943;51.110;-4.158;2023-03-14T00:16:27;99042.03;;;12.22;49.63
17649;BME280;8943;51.110;-4.158;2023-03-14T00:18:55;99029.34;;;12.16;49.77
17649;BME280;8943;51.110;-4.158;2023-03-14T00:21:23;99033.16;;;12.14;50.05
17649;BME280;8943;51.110;-4.158;2023-03-14T00:23:52;99048.34;;;12.13;50.62
17649;BME280;8943;51.110;-4.158;2023-03-14T00:26:21;99065.19;;;12.14;50.40
17649;BME280;8943;51.110;-4.158;2023-03-14T00:28:51;99077.88;;;12.11;50.13
17649;BME280;8943;51.110;-4.158;2023-03-14T00:31:20;99082.06;;;12.14;49.92
17649;BME280;8943;51.110;-4.158;2023-03-14T00:33:48;99092.25;;;12.10;49.57
17649;BME280;8943;51.110;-4.158;2023-03-14T00:36:17;99081.22;;;12.14;50.32
17649;BME280;8943;51.110;-4.158;2023-03-14T00:38:48;99081.06;;;12.15;50.68
17649;BME280;8943;51.110;-4.158;2023-03-14T00:41:19;99097.41;;;12.12;50.67
17649;BME280;8943;51.110;-4.158;2023-03-14T00:43:48;99097.59;;;12.10;50.12
17649;BME280;8943;51.110;-4.158;2023-03-14T00:46:17;99100.59;;;12.16;49.02
17649;BME280;8943;51.110;-4.158;2023-03-14T00:48:45;99125.94;;;12.11;49.45
17649;BME280;8943;51.110;-4.158;2023-03-14T00:51:14;99109.41;;;12.08;48.52
17649;BME280;8943;51.110;-4.158;2023-03-14T00:53:42;99117.91;;;12.03;47.96
17649;BME280;8943;51.110;-4.158;2023-03-14T00:56:11;99119.72;;;12.03;47.36
17649;BME280;8943;51.110;-4.158;2023-03-14T00:58:41;99138.72;;;12.00;47.56
17649;BME280;8943;51.110;-4.158;2023-03-14T01:01:11;99129.88;;;11.99;47.34
17649;BME280;8943;51.110;-4.158;2023-03-14T01:03:40;99136.56;;;12.03;47.52
17649;BME280;8943;51.110;-4.158;2023-03-14T01:06:10;99156.31;;;12.10;47.52
17649;BME280;8943;51.110;-4.158;2023-03-14T01:08:38;99155.97;;;12.14;48.18
17649;BME280;8943;51.110;-4.158;2023-03-14T01:11:08;99153.16;;;12.15;48.56
17649;BME280;8943;51.110;-4.158;2023-03-14T01:13:37;99181.72;;;12.23;48.99
17649;BME280;8943;51.110;-4.158;2023-03-14T01:16:08;99188.34;;;12.19;49.00
17649;BME280;8943;51.110;-4.158;2023-03-14T01:18:37;99186.75;;;12.26;48.19
17649;BME280;8943;51.110;-4.158;2023-03-14T01:21:10;99201.59;;;12.28;47.38
17649;BME280;8943;51.110;-4.158;2023-03-14T01:23:39;99172.38;;;12.27;47.09
17649;BME280;8943;51.110;-4.158;2023-03-14T01:26:08;99173.03;;;12.29;47.43
17649;BME280;8943;51.110;-4.158;2023-03-14T01:28:37;99176.72;;;12.28;47.15
17649;BME280;8943;51.110;-4.158;2023-03-14T01:31:08;99186.09;;;12.32;46.95
17649;BME280;8943;51.110;-4.158;2023-03-14T01:33:37;99207.63;;;12.30;46.49
17649;BME280;8943;51.110;-4.158;2023-03-14T01:36:07;99214.78;;;12.30;45.61
17649;BME280;8943;51.110;-4.158;2023-03-14T01:38:36;99210.06;;;12.24;45.58
17649;BME280;8943;51.110;-4.158;2023-03-14T01:41:05;99234.09;;;12.16;45.55
17649;BME280;8943;51.110;-4.158;2023-03-14T01:43:33;99236.41;;;12.19;45.23
17649;BME280;8943;51.110;-4.158;2023-03-14T01:46:25;99247.38;;;12.07;44.56
17649;BME280;8943;51.110;-4.158;2023-03-14T01:48:57;99247.84;;;12.03;44.65
17649;BME280;8943;51.110;-4.158;2023-03-14T01:51:30;99264.22;;;12.08;44.44
17649;BME280;8943;51.110;-4.158;2023-03-14T01:54:05;99240.72;;;12.11;44.38
17649;BME280;8943;51.110;-4.158;2023-03-14T01:56:36;99263.59;;;12.14;44.95
17649;BME280;8943;51.110;-4.158;2023-03-14T01:59:08;99292.50;;;12.19;45.28
17649;BME280;8943;51.110;-4.158;2023-03-14T02:01:38;99263.13;;;12.19;45.27
17649;BME280;8943;51.110;-4.158;2023-03-14T02:04:10;99257.13;;;12.25;45.16
17649;BME280;8943;51.110;-4.158;2023-03-14T02:06:45;99267.69;;;12.26;46.37
17649;BME280;8943;51.110;-4.158;2023-03-14T02:09:15;99300.25;;;12.30;47.46
17649;BME280;8943;51.110;-4.158;2023-03-14T02:11:44;99301.03;;;12.22;48.55
17649;BME280;8943;51.110;-4.158;2023-03-14T02:14:21;99300.84;;;12.24;48.79
17649;BME280;8943;51.110;-4.158;2023-03-14T02:16:54;99290.16;;;12.16;48.96
17649;BME280;8943;51.110;-4.158;2023-03-14T02:19:35;99308.31;;;12.12;49.44
17649;BME280;8943;51.110;-4.158;2023-03-14T02:22:07;99307.41;;;12.03;49.60
17649;BME280;8943;51.110;-4.158;2023-03-14T02:24:42;99318.72;;;11.97;49.71
17649;BME280;8943;51.110;-4.158;2023-03-14T02:27:16;99319.56;;;11.98;49.64
17649;BME280;8943;51.110;-4.158;2023-03-14T02:29:49;99338.72;;;11.93;49.89
17649;BME280;8943;51.110;-4.158;2023-03-14T02:32:19;99310.66;;;11.89;49.77
17649;BME280;8943;51.110;-4.158;2023-03-14T02:34:50;99316.31;;;11.86;49.26
17649;BME280;8943;51.110;-4.158;2023-03-14T02:37:22;99351.97;;;11.85;49.08
17649;BME280;8943;51.110;-4.158;2023-03-14T02:39:51;99346.09;;;11.81;48.92
17649;BME280;8943;51.110;-4.158;2023-03-14T02:42:20;99335.19;;;11.75;48.84
17649;BME280;8943;51.110;-4.158;2023-03-14T02:44:51;99350.91;;;11.78;48.82
17649;BME280;8943;51.110;-4.158;2023-03-14T02:47:24;99374.53;;;11.73;49.29
17649;BME280;8943;51.110;-4.158;2023-03-14T02:49:59;99370.72;;;11.57;49.80
17649;BME280;8943;51.110;-4.158;2023-03-14T02:52:28;99367.94;;;11.31;49.54
17649;BME280;8943;51.110;-4.158;2023-03-14T02:54:56;99376.22;;;11.11;50.26
17649;BME280;8943;51.110;-4.158;2023-03-14T02:57:26;99383.88;;;10.96;50.94
17649;BME280;8943;51.110;-4.158;2023-03-14T02:59:58;99400.19;;;10.83;50.97
17649;BME280;8943;51.110;-4.158;2023-03-14T03:02:26;99381.16;;;10.78;50.76
17649;BME280;8943;51.110;-4.158;2023-03-14T03:04:54;99417.09;;;10.74;51.15
17649;BME280;8943;51.110;-4.158;2023-03-14T03:07:22;99424.22;;;10.73;50.97
17649;BME280;8943;51.110;-4.158;2023-03-14T03:09:51;99417.63;;;10.77;51.02
17649;BME280;8943;51.110;-4.158;2023-03-14T03:12:19;99423.22;;;10.84;50.91
17649;BME280;8943;51.110;-4.158;2023-03-14T03:14:48;99417.44;;;10.89;50.88
17649;BME280;8943;51.110;-4.158;2023-03-14T03:17:16;99450.66;;;10.94;50.42
17649;BME280;8943;51.110;-4.158;2023-03-14T03:19:45;99428.06;;;10.98;50.20
17649;BME280;8943;51.110;-4.158;2023-03-14T03:22:13;99485.28;;;11.04;49.68
17649;BME280;8943;51.110;-4.158;2023-03-14T03:24:41;99445.38;;;11.12;48.49
17649;BME280;8943;51.110;-4.158;2023-03-14T03:27:09;99458.13;;;11.18;47.16
17649;BME280;8943;51.110;-4.158;2023-03-14T03:29:37;99432.00;;;11.22;46.28
17649;BME280;8943;51.110;-4.158;2023-03-14T03:32:06;99467.91;;;11.27;46.43
17649;BME280;8943;51.110;-4.158;2023-03-14T03:34:34;99470.97;;;11.32;46.44
17649;BME280;8943;51.110;-4.158;2023-03-14T03:37:02;99484.38;;;11.41;46.13
17649;BME280;8943;51.110;-4.158;2023-03-14T03:39:30;99474.44;;;11.43;46.11
17649;BME280;8943;51.110;-4.158;2023-03-14T03:41:58;99472.28;;;11.46;46.27
17649;BME280;8943;51.110;-4.158;2023-03-14T03:44:27;99466.66;;;11.49;45.77
17649;BME280;8943;51.110;-4.158;2023-03-14T03:46:54;99494.00;;;11.51;45.53
17649;BME280;8943;51.110;-4.158;2023-03-14T03:49:27;99467.72;;;11.56;45.19
17649;BME280;8943;51.110;-4.158;2023-03-14T03:51:55;99470.41;;;11.56;44.97
17649;BME280;8943;51.110;-4.158;2023-03-14T03:54:23;99470.94;;;11.60;45.56
17649;BME280;8943;51.110;-4.158;2023-03-14T03:56:52;99464.78;;;11.59;45.60
17649;BME280;8943;51.110;-4.158;2023-03-14T03:59:20;99483.28;;;11.61;45.75
17649;BME280;8943;51.110;-4.158;2023-03-14T04:01:48;99466.81;;;11.66;46.14
17649;BME280;8943;51.110;-4.158;2023-03-14T04:04:16;99477.22;;;11.69;46.33
17649;BME280;8943;51.110;-4.158;2023-03-14T04:06:46;99471.59;;;11.72;46.16
17649;BME280;8943;51.110;-4.158;2023-03-14T04:09:14;99480.28;;;11.74;45.98
17649;BME280;8943;51.110;-4.158;2023-03-14T04:11:42;99485.00;;;11.80;46.49
17649;BME280;8943;51.110;-4.158;2023-03-14T04:14:10;99499.59;;;11.85;46.79
17649;BME280;8943;51.110;-4.158;2023-03-14T04:16:38;99500.34;;;11.78;47.08
17649;BME280;8943;51.110;-4.158;2023-03-14T04:19:06;99500.53;;;11.67;47.64
17649;BME280;8943;51.110;-4.158;2023-03-14T04:21:34;99505.00;;;11.48;47.97
17649;BME280;8943;51.110;-4.158;2023-03-14T04:24:04;99498.22;;;11.26;49.11
17649;BME280;8943;51.110;-4.158;2023-03-14T04:26:32;99485.97;;;10.96;49.83
17649;BME280;8943;51.110;-4.158;2023-03-14T04:29:00;99493.03;;;10.78;50.70
17649;BME280;8943;51.110;-4.158;2023-03-14T04:31:29;99474.72;;;10.65;51.03
17649;BME280;8943;51.110;-4.158;2023-03-14T04:33:57;99482.84;;;10.54;51.37
17649;BME280;8943;51.110;-4.158;2023-03-14T04:36:25;99488.75;;;10.48;51.57
17649;BME280;8943;51.110;-4.158;2023-03-14T04:38:53;99492.13;;;10.50;52.04
17649;BME280;8943;51.110;-4.158;2023-03-14T04:41:22;99496.31;;;10.52;52.36
17649;BME280;8943;51.110;-4.158;2023-03-14T04:43:50;99500.25;;;10.58;52.55
17649;BME280;8943;51.110;-4.158;2023-03-14T04:46:19;99530.22;;;10.70;52.69
17649;BME280;8943;51.110;-4.158;2023-03-14T04:48:47;99555.88;;;10.80;52.74
17649;BME280;8943;51.110;-4.158;2023-03-14T04:51:15;99516.56;;;10.92;51.96
17649;BME280;8943;51.110;-4.158;2023-03-14T04:53:43;99533.22;;;11.14;51.03
17649;BME280;8943;51.110;-4.158;2023-03-14T04:56:11;99534.31;;;11.21;51.13
17649;BME280;8943;51.110;-4.158;2023-03-14T04:58:40;99528.50;;;11.35;51.08
17649;BME280;8943;51.110;-4.158;2023-03-14T05:01:09;99529.59;;;11.42;50.19
17649;BME280;8943;51.110;-4.158;2023-03-14T05:03:37;99558.63;;;11.45;49.95
17649;BME280;8943;51.110;-4.158;2023-03-14T05:06:05;99562.53;;;11.51;49.38
17649;BME280;8943;51.110;-4.158;2023-03-14T05:08:33;99568.00;;;11.49;49.29
17649;BME280;8943;51.110;-4.158;2023-03-14T05:11:01;99629.94;;;11.43;48.76
17649;BME280;8943;51.110;-4.158;2023-03-14T05:13:29;99582.09;;;11.32;47.99
17649;BME280;8943;51.110;-4.158;2023-03-14T05:16:05;99599.00;;;11.23;47.66
17649;BME280;8943;51.110;-4.158;2023-03-14T05:18:33;99599.28;;;11.10;47.40
17649;BME280;8943;51.110;-4.158;2023-03-14T05:21:02;99588.81;;;10.99;47.68
17649;BME280;8943;51.110;-4.158;2023-03-14T05:23:30;99600.16;;;10.91;48.26
17649;BME280;8943;51.110;-4.158;2023-03-14T05:25:58;99590.50;;;10.90;48.68
17649;BME280;8943;51.110;-4.158;2023-03-14T05:28:26;99589.94;;;10.87;48.90
17649;BME280;8943;51.110;-4.158;2023-03-14T05:30:54;99583.09;;;10.84;49.44
17649;BME280;8943;51.110;-4.158;2023-03-14T05:33:24;99601.72;;;10.84;49.74
17649;BME280;8943;51.110;-4.158;2023-03-14T05:35:52;99614.75;;;10.87;49.73
17649;BME280;8943;51.110;-4.158;2023-03-14T05:38:20;99606.06;;;10.85;49.91
17649;BME280;8943;51.110;-4.158;2023-03-14T05:40:48;99590.66;;;10.89;50.21
17649;BME280;8943;51.110;-4.158;2023-03-14T05:43:16;99596.50;;;10.92;50.67
17649;BME280;8943;51.110;-4.158;2023-03-14T05:45:44;99611.66;;;11.01;50.69
17649;BME280;8943;51.110;-4.158;2023-03-14T05:48:12;99618.09;;;11.08;50.08
17649;BME280;8943;51.110;-4.158;2023-03-14T05:50:42;99626.22;;;11.07;49.77
17649;BME280;8943;51.110;-4.158;2023-03-14T05:53:10;99609.00;;;11.01;49.84
17649;BME280;8943;51.110;-4.158;2023-03-14T05:55:38;99619.53;;;11.03;50.03
17649;BME280;8943;51.110;-4.158;2023-03-14T05:58:06;99646.59;;;11.08;49.21
17649;BME280;8943;51.110;-4.158;2023-03-14T06:00:34;99633.53;;;11.15;48.33
17649;BME280;8943;51.110;-4.158;2023-03-14T06:03:02;99655.94;;;11.22;48.22
17649;BME280;8943;51.110;-4.158;2023-03-14T06:05:33;99658.34;;;11.25;47.95
17649;BME280;8943;51.110;-4.158;2023-03-14T06:08:02;99680.09;;;11.30;48.09
17649;BME280;8943;51.110;-4.158;2023-03-14T06:10:30;99667.16;;;11.35;48.09
17649;BME280;8943;51.110;-4.158;2023-03-14T06:12:58;99664.75;;;11.42;47.86
17649;BME280;8943;51.110;-4.158;2023-03-14T06:15:26;99670.22;;;11.40;47.67
17649;BME280;8943;51.110;-4.158;2023-03-14T06:17:55;99682.56;;;11.41;47.35
17649;BME280;8943;51.110;-4.158;2023-03-14T06:20:23;99675.88;;;11.37;47.84
17649;BME280;8943;51.110;-4.158;2023-03-14T06:22:51;99697.06;;;11.39;47.58
17649;BME280;8943;51.110;-4.158;2023-03-14T06:25:21;99665.22;;;11.37;47.14
17649;BME280;8943;51.110;-4.158;2023-03-14T06:27:49;99683.16;;;11.35;47.44
17649;BME280;8943;51.110;-4.158;2023-03-14T06:30:17;99699.44;;;11.32;47.53
17649;BME280;8943;51.110;-4.158;2023-03-14T06:32:45;99710.09;;;11.32;47.40
17649;BME280;8943;51.110;-4.158;2023-03-14T06:35:13;99714.91;;;11.19;47.17
17649;BME280;8943;51.110;-4.158;2023-03-14T06:37:42;99732.44;;;11.12;46.94
17649;BME280;8943;51.110;-4.158;2023-03-14T06:40:12;99711.41;;;11.08;46.83
17649;BME280;8943;51.110;-4.158;2023-03-14T06:42:45;99723.31;;;11.04;47.47
17649;BME280;8943;51.110;-4.158;2023-03-14T06:45:14;99733.56;;;10.99;47.95
17649;BME280;8943;51.110;-4.158;2023-03-14T06:47:44;99739.00;;;10.98;47.83
17649;BME280;8943;51.110;-4.158;2023-03-14T06:50:12;99748.84;;;10.97;47.93
17649;BME280;8943;51.110;-4.158;2023-03-14T06:52:40;99755.44;;;10.93;48.43
17649;BME280;8943;51.110;-4.158;2023-03-14T06:55:15;99755.44;;;10.93;48.54
17649;BME280;8943;51.110;-4.158;2023-03-14T06:57:44;99768.88;;;10.82;48.97
17649;BME280;8943;51.110;-4.158;2023-03-14T07:00:13;99772.38;;;10.73;49.11
17649;BME280;8943;51.110;-4.158;2023-03-14T07:02:41;99784.69;;;10.64;49.11
17649;BME280;8943;51.110;-4.158;2023-03-14T07:05:10;99819.72;;;10.60;49.24
17649;BME280;8943;51.110;-4.158;2023-03-14T07:07:38;99813.41;;;10.61;49.45
17649;BME280;8943;51.110;-4.158;2023-03-14T07:10:06;99847.88;;;10.52;49.62
17649;BME280;8943;51.110;-4.158;2023-03-14T07:12:36;99830.59;;;10.47;49.81
17649;BME280;8943;51.110;-4.158;2023-03-14T07:15:07;99840.81;;;10.42;50.04
17649;BME280;8943;51.110;-4.158;2023-03-14T07:17:44;99842.75;;;10.30;50.00
17649;BME280;8943;51.110;-4.158;2023-03-14T07:20:12;99849.50;;;10.23;50.49
17649;BME280;8943;51.110;-4.158;2023-03-14T07:22:40;99866.72;;;10.19;50.49
17649;BME280;8943;51.110;-4.158;2023-03-14T07:25:08;99882.25;;;10.14;50.72
17649;BME280;8943;51.110;-4.158;2023-03-14T07:27:38;99882.25;;;10.14;50.66
17649;BME280;8943;51.110;-4.158;2023-03-14T07:30:09;99917.13;;;10.11;50.74
17649;BME280;8943;51.110;-4.158;2023-03-14T07:32:37;99907.19;;;10.13;50.92
17649;BME280;8943;51.110;-4.158;2023-03-14T07:35:07;99925.66;;;10.14;50.87
17649;BME280;8943;51.110;-4.158;2023-03-14T07:37:35;99932.44;;;10.18;51.03
17649;BME280;8943;51.110;-4.158;2023-03-14T07:40:05;99932.28;;;10.20;50.82
17649;BME280;8943;51.110;-4.158;2023-03-14T07:42:34;99948.78;;;10.25;50.93
17649;BME280;8943;51.110;-4.158;2023-03-14T07:45:02;99948.13;;;10.32;51.13
17649;BME280;8943;51.110;-4.158;2023-03-14T07:47:34;99985.72;;;10.39;51.11
17649;BME280;8943;51.110;-4.158;2023-03-14T07:50:03;99978.66;;;10.49;50.79
17649;BME280;8943;51.110;-4.158;2023-03-14T07:52:31;99982.22;;;10.60;51.01
17649;BME280;8943;51.110;-4.158;2023-03-14T07:55:00;99995.19;;;10.74;50.72
17649;BME280;8943;51.110;-4.158;2023-03-14T07:57:28;99991.47;;;10.86;50.67
17649;BME280;8943;51.110;-4.158;2023-03-14T07:59:56;100004.69;;;10.97;50.36
17649;BME280;8943;51.110;-4.158;2023-03-14T08:02:26;100013.59;;;11.07;49.98
17649;BME280;8943;51.110;-4.158;2023-03-14T08:04:55;100019.41;;;11.13;50.27
17649;BME280;8943;51.110;-4.158;2023-03-14T08:07:23;100019.09;;;11.16;49.94
17649;BME280;8943;51.110;-4.158;2023-03-14T08:09:51;100048.44;;;11.16;50.09
17649;BME280;8943;51.110;-4.158;2023-03-14T08:12:19;100046.50;;;11.18;50.08
17649;BME280;8943;51.110;-4.158;2023-03-14T08:14:47;100073.59;;;11.23;50.27
17649;BME280;8943;51.110;-4.158;2023-03-14T08:17:15;100083.88;;;11.27;50.45
17649;BME280;8943;51.110;-4.158;2023-03-14T08:19:43;100097.81;;;11.41;49.60
17649;BME280;8943;51.110;-4.158;2023-03-14T08:22:13;100091.91;;;11.37;49.14
17649;BME280;8943;51.110;-4.158;2023-03-14T08:24:44;100102.63;;;11.47;49.21
17649;BME280;8943;51.110;-4.158;2023-03-14T08:27:12;100106.53;;;11.43;49.14
17649;BME280;8943;51.110;-4.158;2023-03-14T08:29:41;100104.56;;;11.45;49.40
17649;BME280;8943;51.110;-4.158;2023-03-14T08:32:10;100104.00;;;11.41;49.21
17649;BME280;8943;51.110;-4.158;2023-03-14T08:34:38;100120.88;;;11.51;49.38
17649;BME280;8943;51.110;-4.158;2023-03-14T08:37:06;100129.13;;;11.39;49.92
17649;BME280;8943;51.110;-4.158;2023-03-14T08:39:53;100145.25;;;11.37;49.49
17649;BME280;8943;51.110;-4.158;2023-03-14T08:42:21;100159.56;;;11.36;49.59
17649;BME280;8943;51.110;-4.158;2023-03-14T08:44:50;100165.16;;;11.33;49.63
17649;BME280;8943;51.110;-4.158;2023-03-14T08:47:18;100163.06;;;11.37;49.53
17649;BME280;8943;51.110;-4.158;2023-03-14T08:49:46;100180.63;;;11.39;49.06
17649;BME280;8943;51.110;-4.158;2023-03-14T08:52:14;100186.97;;;11.38;49.11
17649;BME280;8943;51.110;-4.158;2023-03-14T08:54:43;100205.34;;;11.41;49.34
17649;BME280;8943;51.110;-4.158;2023-03-14T08:57:13;100215.06;;;11.42;49.70
17649;BME280;8943;51.110;-4.158;2023-03-14T08:59:41;100212.00;;;11.47;49.43
17649;BME280;8943;51.110;-4.158;2023-03-14T09:02:10;100233.13;;;11.59;49.02
17649;BME280;8943;51.110;-4.158;2023-03-14T09:04:39;100236.25;;;11.65;49.29
17649;BME280;8943;51.110;-4.158;2023-03-14T09:07:09;100241.50;;;11.76;48.92
17649;BME280;8943;51.110;-4.158;2023-03-14T09:09:37;100249.06;;;11.71;48.41
17649;BME280;8943;51.110;-4.158;2023-03-14T09:12:05;100263.66;;;11.67;48.31
17649;BME280;8943;51.110;-4.158;2023-03-14T09:14:34;100267.13;;;11.57;48.12
17649;BME280;8943;51.110;-4.158;2023-03-14T09:17:03;100263.72;;;11.55;48.22
17649;BME280;8943;51.110;-4.158;2023-03-14T09:19:31;100270.72;;;11.56;48.34
17649;BME280;8943;51.110;-4.158;2023-03-14T09:21:59;100286.03;;;11.54;48.12
17649;BME280;8943;51.110;-4.158;2023-03-14T09:24:27;100291.38;;;11.54;48.40
17649;BME280;8943;51.110;-4.158;2023-03-14T09:26:56;100312.47;;;11.57;48.34
17649;BME280;8943;51.110;-4.158;2023-03-14T09:29:24;100317.03;;;11.67;47.86
17649;BME280;8943;51.110;-4.158;2023-03-14T09:31:54;100319.38;;;11.81;48.14
17649;BME280;8943;51.110;-4.158;2023-03-14T09:34:23;100319.19;;;11.94;48.04
17649;BME280;8943;51.110;-4.158;2023-03-14T09:36:51;100326.16;;;11.85;47.09
17649;BME280;8943;51.110;-4.158;2023-03-14T09:39:19;100328.34;;;11.80;46.89
17649;BME280;8943;51.110;-4.158;2023-03-14T09:41:49;100335.19;;;11.73;46.75
17649;BME280;8943;51.110;-4.158;2023-03-14T09:44:21;100347.94;;;11.69;46.41
17649;BME280;8943;51.110;-4.158;2023-03-14T09:46:54;100346.38;;;11.67;46.32
17649;BME280;8943;51.110;-4.158;2023-03-14T09:49:27;100352.13;;;11.62;45.93
17649;BME280;8943;51.110;-4.158;2023-03-14T09:51:59;100367.66;;;11.57;46.10
17649;BME280;8943;51.110;-4.158;2023-03-14T09:54:31;100391.53;;;11.58;46.13
17649;BME280;8943;51.110;-4.158;2023-03-14T09:57:03;100392.59;;;11.67;45.80
17649;BME280;8943;51.110;-4.158;2023-03-14T09:59:33;100413.06;;;11.78;46.02
17649;BME280;8943;51.110;-4.158;2023-03-14T10:02:13;100406.59;;;11.80;45.77
17649;BME280;8943;51.110;-4.158;2023-03-14T10:04:43;100421.41;;;11.84;45.70
17649;BME280;8943;51.110;-4.158;2023-03-14T10:07:15;100436.81;;;11.92;45.63
17649;BME280;8943;51.110;-4.158;2023-03-14T10:09:48;100445.13;;;11.99;45.73
17649;BME280;8943;51.110;-4.158;2023-03-14T10:12:17;100435.31;;;11.99;45.83
17649;BME280;8943;51.110;-4.158;2023-03-14T10:14:48;100460.06;;;12.01;45.77
17649;BME280;8943;51.110;-4.158;2023-03-14T10:17:19;100467.81;;;12.04;45.85
17649;BME280;8943;51.110;-4.158;2023-03-14T10:19:53;100474.38;;;12.00;45.48
17649;BME280;8943;51.110;-4.158;2023-03-14T10:22:26;100472.69;;;11.99;45.76
17649;BME280;8943;51.110;-4.158;2023-03-14T10:24:59;100471.25;;;11.95;45.65
17649;BME280;8943;51.110;-4.158;2023-03-14T10:27:29;100474.03;;;11.94;45.62
17649;BME280;8943;51.110;-4.158;2023-03-14T10:29:59;100484.72;;;11.94;45.63
17649;BME280;8943;51.110;-4.158;2023-03-14T10:32:33;100484.09;;;12.01;46.17
17649;BME280;8943;51.110;-4.158;2023-03-14T10:35:20;100511.97;;;12.08;45.88
17649;BME280;8943;51.110;-4.158;2023-03-14T10:37:51;100496.69;;;12.10;45.70
17649;BME280;8943;51.110;-4.158;2023-03-14T10:40:26;100516.22;;;12.11;45.77
17649;BME280;8943;51.110;-4.158;2023-03-14T10:42:55;100509.66;;;12.15;46.27
17649;BME280;8943;51.110;-4.158;2023-03-14T10:45:31;100502.81;;;12.22;45.93
17649;BME280;8943;51.110;-4.158;2023-03-14T10:48:17;100509.59;;;12.26;45.90
17649;BME280;8943;51.110;-4.158;2023-03-14T10:50:53;100515.53;;;12.30;46.00
17649;BME280;8943;51.110;-4.158;2023-03-14T10:53:23;100524.50;;;12.29;45.20
17649;BME280;8943;51.110;-4.158;2023-03-14T10:55:55;100522.44;;;12.32;45.54
17649;BME280;8943;51.110;-4.158;2023-03-14T10:58:27;100525.19;;;12.42;45.44
17649;BME280;8943;51.110;-4.158;2023-03-14T11:01:05;100549.44;;;12.50;44.94
17649;BME280;8943;51.110;-4.158;2023-03-14T11:03:42;100551.59;;;12.56;45.29
17649;BME280;8943;51.110;-4.158;2023-03-14T11:06:14;100552.56;;;12.76;45.03
17649;BME280;8943;51.110;-4.158;2023-03-14T11:08:50;100560.78;;;12.84;44.97
17649;BME280;8943;51.110;-4.158;2023-03-14T11:11:22;100566.97;;;13.06;45.35
17649;BME280;8943;51.110;-4.158;2023-03-14T11:14:03;100570.59;;;13.26;44.99
17649;BME280;8943;51.110;-4.158;2023-03-14T11:16:45;100582.19;;;13.36;44.75
17649;BME280;8943;51.110;-4.158;2023-03-14T11:22:24;100593.84;;;13.25;44.64
17649;BME280;8943;51.110;-4.158;2023-03-14T11:25:06;100579.13;;;13.20;45.19
17649;BME280;8943;51.110;-4.158;2023-03-14T11:27:42;100593.06;;;13.13;45.49
17649;BME280;8943;51.110;-4.158;2023-03-14T11:30:19;100604.16;;;13.09;46.13
17649;BME280;8943;51.110;-4.158;2023-03-14T11:32:59;100609.00;;;12.94;46.70
17649;BME280;8943;51.110;-4.158;2023-03-14T11:35:34;100600.22;;;12.92;46.75
17649;BME280;8943;51.110;-4.158;2023-03-14T11:38:14;100612.91;;;12.90;46.67
17649;BME280;8943;51.110;-4.158;2023-03-14T11:40:44;100612.63;;;12.93;46.79
17649;BME280;8943;51.110;-4.158;2023-03-14T11:45:43;100633.75;;;12.96;46.15
17649;BME280;8943;51.110;-4.158;2023-03-14T11:48:17;100635.28;;;12.89;45.65
17649;BME280;8943;51.110;-4.158;2023-03-14T11:50:49;100634.53;;;12.87;45.67
17649;BME280;8943;51.110;-4.158;2023-03-14T11:53:23;100635.91;;;12.81;45.05
17649;BME280;8943;51.110;-4.158;2023-03-14T11:55:55;100642.38;;;12.79;44.94
17649;BME280;8943;51.110;-4.158;2023-03-14T11:58:26;100665.00;;;12.75;44.66
17649;BME280;8943;51.110;-4.158;2023-03-14T12:00:56;100653.00;;;12.69;44.38
17649;BME280;8943;51.110;-4.158;2023-03-14T12:03:31;100656.75;;;12.67;43.87
17649;BME280;8943;51.110;-4.158;2023-03-14T12:06:09;100654.94;;;12.67;44.19
17649;BME280;8943;51.110;-4.158;2023-03-14T12:08:50;100663.94;;;12.66;44.51
17649;BME280;8943;51.110;-4.158;2023-03-14T12:11:28;100675.22;;;12.70;44.75
17649;BME280;8943;51.110;-4.158;2023-03-14T12:13:57;100680.28;;;12.73;44.80
17649;BME280;8943;51.110;-4.158;2023-03-14T12:16:37;100677.25;;;12.77;45.10
17649;BME280;8943;51.110;-4.158;2023-03-14T12:24:55;100686.91;;;12.89;45.16
17649;BME280;8943;51.110;-4.158;2023-03-14T12:27:43;100703.44;;;12.95;44.90
17649;BME280;8943;51.110;-4.158;2023-03-14T12:30:27;100691.16;;;12.92;44.07
17649;BME280;8943;51.110;-4.158;2023-03-14T12:33:27;100690.91;;;12.95;44.18
17649;BME280;8943;51.110;-4.158;2023-03-14T12:36:18;100689.22;;;12.94;43.56
17649;BME280;8943;51.110;-4.158;2023-03-14T12:39:00;100689.31;;;12.93;43.78
17649;BME280;8943;51.110;-4.158;2023-03-14T12:41:38;100691.81;;;13.05;44.07
17649;BME280;8943;51.110;-4.158;2023-03-14T12:44:41;100698.81;;;13.18;43.79
17649;BME280;8943;51.110;-4.158;2023-03-14T12:47:52;100686.91;;;13.22;42.63
17649;BME280;8943;51.110;-4.158;2023-03-14T12:50:26;100691.16;;;13.24;42.40
17649;BME280;8943;51.110;-4.158;2023-03-14T12:53:15;100703.59;;;13.35;41.76
17649;BME280;8943;51.110;-4.158;2023-03-14T12:55:45;100709.72;;;13.47;41.61
17649;BME280;8943;51.110;-4.158;2023-03-14T12:58:27;100706.94;;;13.48;41.26
17649;BME280;8943;51.110;-4.158;2023-03-14T13:01:00;100722.31;;;13.56;41.70
17649;BME280;8943;51.110;-4.158;2023-03-14T13:03:38;100720.69;;;13.64;41.42
17649;BME280;8943;51.110;-4.158;2023-03-14T13:06:09;100718.47;;;13.70;41.43
17649;BME280;8943;51.110;-4.158;2023-03-14T13:08:40;100729.31;;;13.68;41.15
17649;BME280;8943;51.110;-4.158;2023-03-14T13:11:10;100733.53;;;13.71;41.53
17649;BME280;8943;51.110;-4.158;2023-03-14T13:13:45;100721.81;;;13.62;42.03
17649;BME280;8943;51.110;-4.158;2023-03-14T13:16:17;100723.75;;;13.60;41.66
17649;BME280;8943;51.110;-4.158;2023-03-14T13:18:47;100723.91;;;13.58;41.65
17649;BME280;8943;51.110;-4.158;2023-03-14T13:21:18;100725.44;;;13.61;40.64
17649;BME280;8943;51.110;-4.158;2023-03-14T13:23:55;100735.72;;;13.56;40.56
17649;BME280;8943;51.110;-4.158;2023-03-14T13:26:26;100728.06;;;13.51;40.14